Time;durP1;ratioP1;P1;durP2;ratioP2;P2;SDS_P1;SDS_P2;PMS_P1;PMS_P2;Temp;Humidity;BMP_temperature;BMP_pressure;BME280_temperature;BME280_humidity;BME280_pressure;Samples;Min_cycle;Max_cycle;Signal;HPM_P1;HPM_P2
2022/12/02 00:00:49;;;;;;;60.97;19.92;;;;;;;1.79;100.00;99016.00;2597918;28;20095;-83
2022/12/02 00:02:21;;;;;;;59.92;19.35;;;;;;;2.01;100.00;99013.75;2598015;28;20578;-82
2022/12/02 00:03:36;;;;;;;58.00;20.77;;;;;;;1.98;100.00;99002.53;2598382;28;20060;-84
2022/12/02 00:05:17;;;;;;;58.50;21.02;;;;;;;2.05;100.00;99003.50;2597816;28;20057;-83
2022/12/02 00:06:33;;;;;;;64.15;20.33;;;;;;;1.65;100.00;99001.16;2593963;28;20115;-84
2022/12/02 00:07:48;;;;;;;67.07;20.95;;;;;;;1.73;100.00;98990.94;2597632;28;20053;-81
2022/12/02 00:09:34;;;;;;;54.80;19.05;;;;;;;1.99;100.00;98995.69;2597858;28;20072;-82
2022/12/02 00:10:52;;;;;;;57.78;20.00;;;;;;;2.16;100.00;98992.47;2594113;28;20068;-82
2022/12/02 00:12:26;;;;;;;61.05;20.35;;;;;;;2.32;100.00;98996.16;2597655;28;20053;-82
2022/12/02 00:13:43;;;;;;;54.33;19.52;;;;;;;2.35;100.00;98991.03;2597645;28;20602;-85
2022/12/02 00:15:20;;;;;;;60.40;20.23;;;;;;;2.21;100.00;98993.41;2598035;28;20471;-83
2022/12/02 00:16:36;;;;;;;55.15;18.50;;;;;;;2.07;100.00;99000.97;2597220;28;20537;-84
2022/12/02 00:17:51;;;;;;;61.88;19.98;;;;;;;1.73;100.00;98996.13;2597657;28;20064;-83
2022/12/02 00:19:07;;;;;;;58.78;20.25;;;;;;;1.73;100.00;98998.69;2597660;28;20061;-82
2022/12/02 00:20:23;;;;;;;56.75;19.88;;;;;;;1.76;100.00;99003.91;2597694;28;20187;-83
2022/12/02 00:21:38;;;;;;;62.70;20.13;;;;;;;1.74;100.00;98999.56;2597648;28;20060;-81
2022/12/02 00:22:54;;;;;;;62.13;19.88;;;;;;;1.93;100.00;98999.03;2597882;28;20100;-82
2022/12/02 00:24:10;;;;;;;57.88;19.77;;;;;;;2.20;100.00;98994.25;2597788;28;20252;-85
2022/12/02 00:25:25;;;;;;;58.85;19.50;;;;;;;1.97;100.00;98999.94;2597933;28;20049;-83
2022/12/02 00:26:41;;;;;;;67.43;20.98;;;;;;;2.15;100.00;98988.16;2597364;28;20045;-82
2022/12/02 00:27:58;;;;;;;50.63;18.23;;;;;;;1.82;100.00;98996.28;2596866;28;20061;-82
2022/12/02 00:29:14;;;;;;;59.38;20.33;;;;;;;2.14;100.00;98991.59;2597216;28;20056;-82
2022/12/02 00:30:29;;;;;;;58.67;20.42;;;;;;;2.26;100.00;98997.78;2597757;28;20583;-82
2022/12/02 00:31:45;;;;;;;61.85;20.20;;;;;;;2.34;100.00;98995.31;2597693;28;20539;-84
2022/12/02 00:33:00;;;;;;;64.15;20.58;;;;;;;2.33;100.00;98988.41;2597635;28;20053;-82
2022/12/02 00:34:16;;;;;;;55.92;21.20;;;;;;;2.38;100.00;98993.66;2597674;28;20056;-83
2022/12/02 00:35:32;;;;;;;54.20;20.13;;;;;;;2.45;100.00;98997.19;2597557;28;20254;-87
2022/12/02 00:36:47;;;;;;;53.63;18.02;;;;;;;2.23;100.00;98986.53;2596754;28;20130;-83
2022/12/02 00:38:04;;;;;;;65.35;19.98;;;;;;;2.37;100.00;98986.75;2597781;28;20485;-83
2022/12/02 00:39:20;;;;;;;63.55;19.90;;;;;;;2.44;100.00;98987.69;2597494;28;20128;-89
2022/12/02 00:40:35;;;;;;;62.20;20.85;;;;;;;2.45;100.00;98979.97;2597296;28;20060;-83
2022/12/02 00:41:51;;;;;;;60.50;19.30;;;;;;;2.17;100.00;98987.34;2597336;28;20133;-82
2022/12/02 00:46:31;;;;;;;53.13;19.80;;;;;;;2.42;100.00;98977.31;2597495;28;20053;-83
2022/12/02 00:47:46;;;;;;;58.42;20.25;;;;;;;2.44;100.00;98973.03;2597307;28;21995;-82
2022/12/02 00:49:13;;;;;;;53.42;19.65;;;;;;;2.26;100.00;98978.84;2596908;28;20057;-82
2022/12/02 00:50:29;;;;;;;57.47;20.35;;;;;;;2.27;100.00;98970.25;2597325;28;20060;-84
2022/12/02 00:51:45;;;;;;;54.33;19.27;;;;;;;1.94;100.00;98974.94;2597218;28;20087;-82
2022/12/02 00:53:00;;;;;;;60.55;20.05;;;;;;;2.26;100.00;98973.69;2597186;28;20136;-82
2022/12/02 00:54:16;;;;;;;61.20;20.50;;;;;;;2.30;100.00;98969.41;2597402;28;20057;-83
2022/12/02 00:55:31;;;;;;;58.95;20.02;;;;;;;2.36;100.00;98970.34;2596833;28;20080;-88
2022/12/02 00:56:47;;;;;;;57.20;19.90;;;;;;;2.48;100.00;98967.09;2597356;28;20510;-85
2022/12/02 00:58:03;;;;;;;55.25;20.00;;;;;;;2.01;100.00;98962.09;2597484;28;20061;-83
2022/12/02 00:59:18;;;;;;;55.72;19.38;;;;;;;2.01;100.00;98968.16;2596869;28;20389;-82
2022/12/02 01:00:34;;;;;;;57.05;20.90;;;;;;;1.87;100.00;98972.25;2597091;28;20053;-83
2022/12/02 01:01:50;;;;;;;57.13;19.50;;;;;;;2.02;100.00;98969.88;2597550;28;20610;-82
2022/12/02 01:03:05;;;;;;;62.70;21.92;;;;;;;2.22;100.00;98970.19;2597579;28;20049;-82
2022/12/02 01:04:21;;;;;;;59.90;21.50;;;;;;;2.29;100.00;98971.13;2597234;28;20049;-82
2022/12/02 01:05:37;;;;;;;53.88;18.85;;;;;;;2.33;100.00;98966.88;2597714;28;20152;-81
2022/12/02 01:06:52;;;;;;;56.90;21.02;;;;;;;2.36;100.00;98966.91;2597232;28;20045;-87
2022/12/02 01:08:08;;;;;;;54.00;19.63;;;;;;;2.20;100.00;98968.41;2597238;28;20061;-83
2022/12/02 01:09:23;;;;;;;57.90;20.20;;;;;;;2.21;100.00;98970.16;2597256;28;20048;-83
2022/12/02 01:10:39;;;;;;;58.65;18.80;;;;;;;2.00;100.00;98958.66;2596881;28;20131;-83
2022/12/02 01:11:54;;;;;;;61.30;20.38;;;;;;;2.20;100.00;98971.00;2597425;28;20965;-87
2022/12/02 01:13:10;;;;;;;54.92;19.30;;;;;;;2.32;100.00;98971.16;2596761;28;20088;-83
2022/12/02 01:14:26;;;;;;;59.28;19.90;;;;;;;2.33;100.00;98967.75;2597241;28;20080;-83
2022/12/02 01:15:41;;;;;;;52.10;18.23;;;;;;;2.33;100.00;98977.22;2597284;28;20110;-82
2022/12/02 01:16:57;;;;;;;54.75;19.95;;;;;;;2.24;100.00;98975.38;2597464;28;20056;-81
2022/12/02 01:18:13;;;;;;;63.42;20.38;;;;;;;2.28;100.00;98965.94;2597315;28;20566;-82
2022/12/02 01:19:29;;;;;;;56.88;20.92;;;;;;;2.37;100.00;98974.69;2597349;28;20542;-85
2022/12/02 01:20:45;;;;;;;58.90;19.52;;;;;;;2.34;100.00;98973.78;2597155;28;20058;-82
2022/12/02 01:22:00;;;;;;;57.10;21.70;;;;;;;2.25;100.00;98970.22;2596950;28;20064;-83
2022/12/02 01:23:16;;;;;;;57.78;20.40;;;;;;;2.08;100.00;98964.78;2596793;28;20487;-83
2022/12/02 01:24:32;;;;;;;62.30;20.75;;;;;;;2.02;100.00;98966.41;2596744;28;20053;-82
2022/12/02 01:25:48;;;;;;;60.58;21.42;;;;;;;2.15;100.00;98967.50;2596886;28;20048;-81
2022/12/02 01:27:03;;;;;;;56.95;19.60;;;;;;;2.25;100.00;98959.88;2597120;28;20757;-83
2022/12/02 01:28:19;;;;;;;64.45;21.35;;;;;;;2.04;100.00;98957.84;2596924;28;20553;-88
2022/12/02 01:29:34;;;;;;;61.35;20.15;;;;;;;2.01;100.00;98955.25;2597028;28;20052;-82
2022/12/02 01:30:50;;;;;;;56.58;19.00;;;;;;;2.22;100.00;98956.38;2597301;28;20053;-83
2022/12/02 01:32:05;;;;;;;61.05;21.20;;;;;;;2.21;100.00;98959.81;2596756;28;20049;-86
2022/12/02 01:33:21;;;;;;;57.92;21.05;;;;;;;2.27;100.00;98954.75;2597137;28;20153;-81
2022/12/02 01:34:37;;;;;;;56.70;19.70;;;;;;;1.90;100.00;98954.19;2596811;28;20057;-83
2022/12/02 01:35:52;;;;;;;58.55;20.90;;;;;;;1.83;100.00;98961.00;2597545;28;20076;-82
2022/12/02 01:37:08;;;;;;;54.63;20.02;;;;;;;2.03;100.00;98957.84;2597005;28;20049;-80
2022/12/02 01:38:23;;;;;;;61.00;20.55;;;;;;;2.25;100.00;98954.72;2596972;28;20075;-79
2022/12/02 01:39:39;;;;;;;59.80;20.35;;;;;;;2.06;100.00;98950.16;2596922;28;20123;-81
2022/12/02 01:40:55;;;;;;;61.05;20.48;;;;;;;1.74;100.00;98956.53;2597010;28;20061;-85
2022/12/02 01:42:10;;;;;;;59.15;20.15;;;;;;;1.85;100.00;98942.94;2597143;28;20053;-82
2022/12/02 01:43:27;;;;;;;61.60;20.00;;;;;;;1.85;100.00;98953.28;2596755;28;20103;-86
2022/12/02 01:44:42;;;;;;;59.55;20.40;;;;;;;2.00;100.00;98950.03;2597184;28;20053;-82
2022/12/02 01:45:58;;;;;;;56.05;19.13;;;;;;;2.01;100.00;98949.19;2596861;28;20057;-80
2022/12/02 01:47:14;;;;;;;60.50;21.40;;;;;;;1.90;100.00;98951.63;2596958;28;20071;-80
2022/12/02 01:48:30;;;;;;;65.70;20.15;;;;;;;1.68;100.00;98951.31;2596718;28;20136;-82
2022/12/02 01:49:45;;;;;;;58.97;19.38;;;;;;;1.75;100.00;98954.84;2596726;28;20586;-85
2022/12/02 01:51:01;;;;;;;61.97;20.77;;;;;;;1.73;100.00;98949.66;2596968;28;20152;-80
2022/12/02 01:52:17;;;;;;;58.53;21.25;;;;;;;1.85;100.00;98942.94;2596635;28;20124;-85
2022/12/02 01:53:35;;;;;;;65.20;20.35;;;;;;;2.04;100.00;98947.53;2597208;28;20080;-82
2022/12/02 01:54:51;;;;;;;57.60;20.45;;;;;;;2.21;100.00;98944.31;2596841;28;20049;-83
2022/12/02 01:56:09;;;;;;;57.53;19.92;;;;;;;2.20;100.00;98951.22;2596583;28;20103;-82
2022/12/02 01:57:27;;;;;;;55.97;19.67;;;;;;;1.85;100.00;98942.94;2596555;28;20077;-84
2022/12/02 01:58:43;;;;;;;63.92;20.30;;;;;;;1.80;100.00;98948.88;2596371;28;20144;-81
2022/12/02 01:59:58;;;;;;;53.22;19.27;;;;;;;1.79;100.00;98951.47;2596557;28;20053;-86
2022/12/02 02:01:40;;;;;;;61.03;18.88;;;;;;;1.39;100.00;98949.06;2596793;28;20192;-82
2022/12/02 02:02:56;;;;;;;62.10;19.65;;;;;;;1.54;100.00;98946.78;2595254;28;20136;-82
2022/12/02 02:04:11;;;;;;;58.97;21.00;;;;;;;1.34;100.00;98942.97;2596277;28;20057;-82
2022/12/02 02:05:30;;;;;;;62.85;22.33;;;;;;;1.78;100.00;98945.41;2596837;28;20045;-82
2022/12/02 02:06:46;;;;;;;67.72;21.73;;;;;;;2.02;100.00;98938.91;2596943;28;20053;-81
2022/12/02 02:08:07;;;;;;;54.80;19.80;;;;;;;1.95;100.00;98937.94;2596484;28;20057;-82
2022/12/02 02:09:23;;;;;;;53.47;19.25;;;;;;;1.92;100.00;98940.47;2596984;28;20088;-82
2022/12/02 02:10:42;;;;;;;59.42;21.10;;;;;;;2.02;100.00;98941.47;2596504;28;20492;-82
2022/12/02 02:11:57;;;;;;;57.63;19.48;;;;;;;1.89;100.00;98936.97;2596779;28;20063;-83
2022/12/02 02:13:15;;;;;;;53.78;19.20;;;;;;;1.57;100.00;98937.34;2596854;28;20049;-83
2022/12/02 02:14:31;;;;;;;58.97;20.38;;;;;;;1.82;100.00;98936.91;2596536;28;20485;-84
2022/12/02 02:15:47;;;;;;;61.17;20.05;;;;;;;1.47;100.00;98942.34;2596738;28;20052;-83
2022/12/02 02:17:03;;;;;;;54.80;19.15;;;;;;;1.29;100.00;98937.72;2596208;28;20060;-81
2022/12/02 02:18:18;;;;;;;53.42;20.38;;;;;;;1.39;100.00;98937.06;2597012;28;20064;-88
2022/12/02 02:19:34;;;;;;;57.92;19.67;;;;;;;1.55;100.00;98933.03;2596663;28;20049;-82
2022/12/02 02:20:52;;;;;;;65.85;20.00;;;;;;;1.96;100.00;98925.91;2596950;28;20045;-82
2022/12/02 02:22:13;;;;;;;58.08;20.15;;;;;;;2.06;100.00;98924.31;2596776;28;20050;-82
2022/12/02 02:23:29;;;;;;;59.92;20.00;;;;;;;2.18;100.00;98929.66;2596649;28;20683;-82
2022/12/02 02:24:45;;;;;;;58.28;20.58;;;;;;;1.87;100.00;98921.44;2596753;28;20092;-81
2022/12/02 02:26:02;;;;;;;58.70;18.95;;;;;;;1.98;100.00;98925.06;2596483;28;20049;-82
2022/12/02 02:27:18;;;;;;;54.35;19.77;;;;;;;1.75;100.00;98926.47;2596256;28;20057;-85
2022/12/02 02:28:34;;;;;;;60.25;19.65;;;;;;;1.46;100.00;98919.09;2596415;28;20053;-84
2022/12/02 02:29:49;;;;;;;63.38;21.05;;;;;;;1.62;100.00;98927.97;2596653;28;20053;-82
2022/12/02 02:31:05;;;;;;;59.22;19.70;;;;;;;1.47;100.00;98926.88;2596894;28;20042;-83
2022/12/02 02:32:21;;;;;;;57.70;19.02;;;;;;;1.66;100.00;98925.44;2596662;28;20054;-81
2022/12/02 02:33:37;;;;;;;56.08;20.40;;;;;;;1.89;100.00;98918.91;2596759;28;20060;-82
2022/12/02 02:34:53;;;;;;;68.30;21.60;;;;;;;2.05;100.00;98920.84;2596200;28;20077;-85
2022/12/02 02:36:09;;;;;;;54.42;18.73;;;;;;;1.90;100.00;98926.69;2596501;28;20046;-89
2022/12/02 02:37:25;;;;;;;58.83;19.55;;;;;;;1.83;100.00;98919.69;2596628;28;20155;-82
2022/12/02 02:38:40;;;;;;;58.13;19.17;;;;;;;1.67;100.00;98923.72;2596451;28;20095;-81
2022/12/02 02:39:56;;;;;;;61.95;20.35;;;;;;;1.77;100.00;98917.00;2596517;28;20053;-81
2022/12/02 02:41:12;;;;;;;61.33;19.77;;;;;;;1.97;100.00;98914.72;2595948;28;20088;-81
2022/12/02 02:42:28;;;;;;;64.10;20.58;;;;;;;2.18;100.00;98918.44;2596435;28;20973;-89
2022/12/02 02:43:43;;;;;;;64.38;20.30;;;;;;;2.17;100.00;98915.00;2596558;28;20046;-84
2022/12/02 02:45:00;;;;;;;52.72;18.50;;;;;;;2.09;100.00;98922.63;2596290;28;20172;-83
2022/12/02 02:46:16;;;;;;;61.15;19.83;;;;;;;2.19;100.00;98922.75;2596453;28;20454;-84
2022/12/02 02:47:32;;;;;;;57.03;19.90;;;;;;;1.76;100.00;98925.59;2596652;28;20057;-81
2022/12/02 02:48:49;;;;;;;60.65;20.50;;;;;;;1.90;100.00;98928.38;2596204;28;20065;-83
2022/12/02 02:50:06;;;;;;;60.85;19.00;;;;;;;1.90;100.00;98930.97;2596357;28;20103;-81
2022/12/02 02:51:22;;;;;;;56.35;19.75;;;;;;;2.07;100.00;98926.91;2595977;28;20049;-85
2022/12/02 02:52:37;;;;;;;58.03;19.23;;;;;;;2.18;100.00;98929.66;2596555;28;20535;-81
2022/12/02 02:53:53;;;;;;;51.95;18.85;;;;;;;1.98;100.00;98929.38;2596478;28;20057;-81
2022/12/02 02:55:16;;;;;;;56.50;18.98;;;;;;;1.84;100.00;98931.75;2596574;28;20053;-81
2022/12/02 02:56:32;;;;;;;50.42;19.83;;;;;;;1.94;100.00;98925.00;2595796;28;20057;-81
2022/12/02 02:57:48;;;;;;;53.72;18.05;;;;;;;1.95;100.00;98921.56;2596318;28;20741;-84
2022/12/02 02:59:04;;;;;;;52.85;19.50;;;;;;;2.00;100.00;98922.50;2596158;28;20057;-81
2022/12/02 03:00:21;;;;;;;54.85;19.50;;;;;;;2.21;100.00;98924.53;2595910;28;20623;-81
2022/12/02 03:01:37;;;;;;;50.60;18.90;;;;;;;2.16;100.00;98923.56;2596074;28;20626;-83
2022/12/02 03:02:54;;;;;;;51.10;19.05;;;;;;;1.78;100.00;98924.75;2595915;28;20053;-81
2022/12/02 03:04:13;;;;;;;55.03;18.95;;;;;;;1.95;100.00;98919.84;2596194;28;20508;-83
2022/12/02 03:05:29;;;;;;;56.15;17.83;;;;;;;1.65;100.00;98920.25;2596110;28;20080;-82
2022/12/02 03:06:47;;;;;;;51.15;17.92;;;;;;;1.69;100.00;98919.47;2596334;28;20062;-84
2022/12/02 03:08:03;;;;;;;56.45;18.70;;;;;;;1.82;100.00;98920.53;2595843;28;20060;-81
2022/12/02 03:09:21;;;;;;;59.60;19.35;;;;;;;2.02;100.00;98923.41;2595830;28;20053;-80
2022/12/02 03:10:37;;;;;;;50.45;18.58;;;;;;;2.17;100.00;98916.72;2595994;28;20076;-83
2022/12/02 03:11:55;;;;;;;51.40;18.92;;;;;;;2.08;100.00;98918.31;2596612;28;20139;-81
2022/12/02 03:13:11;;;;;;;54.25;18.52;;;;;;;1.90;100.00;98916.34;2596302;28;20625;-84
2022/12/02 03:14:27;;;;;;;59.70;19.70;;;;;;;1.91;100.00;98924.94;2596101;28;20140;-81
2022/12/02 03:15:42;;;;;;;50.95;17.42;;;;;;;1.97;100.00;98914.72;2596166;28;20507;-81
2022/12/02 03:17:01;;;;;;;54.28;19.95;;;;;;;1.83;100.00;98920.56;2596052;28;20058;-81
2022/12/02 03:18:17;;;;;;;57.67;17.58;;;;;;;1.72;100.00;98918.63;2596468;28;20420;-81
2022/12/02 03:19:34;;;;;;;58.15;19.02;;;;;;;1.84;100.00;98918.81;2595939;28;20121;-84
2022/12/02 03:20:49;;;;;;;53.97;18.02;;;;;;;1.66;100.00;98919.41;2595851;28;20057;-81
2022/12/02 03:22:06;;;;;;;53.35;18.88;;;;;;;1.49;100.00;98916.59;2596038;28;20050;-82
2022/12/02 03:23:22;;;;;;;60.70;20.00;;;;;;;1.46;100.00;98907.06;2595876;28;20132;-83
2022/12/02 03:24:38;;;;;;;57.65;17.90;;;;;;;1.66;100.00;98907.38;2596390;28;20412;-82
2022/12/02 03:25:53;;;;;;;55.25;18.63;;;;;;;1.72;100.00;98900.56;2595967;28;20440;-81
2022/12/02 03:27:09;;;;;;;52.38;19.27;;;;;;;1.72;100.00;98901.44;2596109;28;20050;-82
2022/12/02 03:28:25;;;;;;;66.70;20.00;;;;;;;1.41;100.00;98903.56;2595804;28;20408;-81
2022/12/02 03:29:41;;;;;;;53.78;17.75;;;;;;;1.12;100.00;98902.22;2595807;28;20072;-81
2022/12/02 03:30:57;;;;;;;59.42;18.42;;;;;;;1.10;100.00;98905.59;2596185;28;20429;-82
2022/12/02 03:32:13;;;;;;;54.47;19.00;;;;;;;1.40;100.00;98909.56;2595983;28;20049;-85
2022/12/02 03:33:30;;;;;;;54.42;19.90;;;;;;;1.25;100.00;98902.41;2596361;28;20049;-82
2022/12/02 03:34:46;;;;;;;58.15;19.77;;;;;;;1.40;100.00;98894.94;2595809;28;20059;-88
2022/12/02 03:36:01;;;;;;;50.00;16.60;;;;;;;1.41;100.00;98890.66;2596170;28;20421;-82
2022/12/02 03:37:18;;;;;;;48.42;17.83;;;;;;;1.26;100.00;98894.72;2595918;28;20084;-86
2022/12/02 03:38:35;;;;;;;58.05;18.38;;;;;;;1.34;100.00;98899.13;2596303;28;20507;-80
2022/12/02 03:39:51;;;;;;;53.67;19.25;;;;;;;1.50;100.00;98895.94;2595813;28;20141;-82
2022/12/02 03:41:08;;;;;;;55.80;18.65;;;;;;;1.72;100.00;98891.13;2595477;28;20080;-83
2022/12/02 03:42:25;;;;;;;54.35;19.05;;;;;;;1.80;100.00;98893.81;2596451;28;20469;-81
2022/12/02 03:43:41;;;;;;;50.30;16.58;;;;;;;1.46;100.00;98893.28;2595850;28;20052;-84
2022/12/02 03:44:56;;;;;;;51.67;17.80;;;;;;;1.47;100.00;98898.47;2595756;28;20049;-85
2022/12/02 03:46:13;;;;;;;56.17;19.00;;;;;;;1.78;100.00;98895.50;2595678;28;20489;-81
2022/12/02 03:47:28;;;;;;;54.10;18.85;;;;;;;1.91;100.00;98897.44;2595863;28;20222;-85
2022/12/02 03:48:44;;;;;;;51.13;19.00;;;;;;;1.93;100.00;98895.72;2596319;28;20144;-82
2022/12/02 03:50:00;;;;;;;49.67;17.40;;;;;;;1.96;100.00;98900.09;2595844;28;20060;-84
2022/12/02 03:51:17;;;;;;;48.03;17.60;;;;;;;1.98;100.00;98894.06;2596182;28;20132;-82
2022/12/02 03:52:32;;;;;;;51.67;17.17;;;;;;;1.69;100.00;98891.09;2596002;28;20049;-81
2022/12/02 03:53:48;;;;;;;53.83;19.90;;;;;;;1.53;100.00;98901.16;2596331;28;20049;-82
2022/12/02 03:55:05;;;;;;;51.03;18.25;;;;;;;1.36;100.00;98897.44;2595744;28;20050;-82
2022/12/02 03:56:20;;;;;;;49.85;17.23;;;;;;;1.74;100.00;98894.59;2595967;28;20073;-81
2022/12/02 03:57:36;;;;;;;52.10;17.50;;;;;;;1.91;100.00;98894.84;2596104;28;20045;-82
2022/12/02 03:58:53;;;;;;;49.70;18.13;;;;;;;1.37;100.00;98897.47;2596164;28;20144;-82
2022/12/02 04:00:10;;;;;;;50.00;17.45;;;;;;;1.46;100.00;98889.00;2596001;28;20175;-81
2022/12/02 04:01:26;;;;;;;53.00;18.48;;;;;;;1.29;100.00;98895.59;2595956;28;20999;-83
2022/12/02 04:02:42;;;;;;;48.08;17.70;;;;;;;1.51;100.00;98892.50;2596338;28;20061;-83
2022/12/02 04:03:58;;;;;;;57.85;17.88;;;;;;;1.52;100.00;98883.94;2595590;28;20057;-85
2022/12/02 04:05:13;;;;;;;52.35;18.73;;;;;;;1.62;100.00;98882.38;2596319;28;20053;-83
2022/12/02 04:06:29;;;;;;;47.53;18.05;;;;;;;1.32;100.00;98877.59;2596255;28;20053;-82
2022/12/02 04:07:45;;;;;;;50.65;18.48;;;;;;;1.54;100.00;98879.69;2595928;28;20392;-82
2022/12/02 04:09:00;;;;;;;50.35;17.73;;;;;;;1.70;100.00;98885.06;2595319;28;20076;-82
2022/12/02 04:10:16;;;;;;;52.13;17.20;;;;;;;1.60;100.00;98880.63;2595217;28;20053;-82
2022/12/02 04:11:31;;;;;;;46.17;17.80;;;;;;;1.50;100.00;98880.47;2596134;28;20092;-82
2022/12/02 04:12:47;;;;;;;49.05;19.10;;;;;;;1.64;100.00;98882.38;2597806;28;20049;-84
2022/12/02 04:14:03;;;;;;;54.92;17.42;;;;;;;1.62;100.00;98886.66;2597748;28;20136;-82
2022/12/02 04:15:18;;;;;;;44.28;17.02;;;;;;;1.74;100.00;98879.09;2597557;28;20404;-81
2022/12/02 04:16:34;;;;;;;53.85;18.42;;;;;;;1.60;100.00;98880.63;2597521;28;20139;-83
2022/12/02 04:17:49;;;;;;;46.95;17.42;;;;;;;1.26;100.00;98880.94;2597598;28;20045;-88
2022/12/02 04:19:05;;;;;;;46.75;16.42;;;;;;;1.50;100.00;98870.13;2597868;28;20049;-82
2022/12/02 04:20:21;;;;;;;48.47;16.48;;;;;;;1.77;100.00;98871.41;2597487;28;20099;-81
2022/12/02 04:21:36;;;;;;;48.75;17.50;;;;;;;1.69;100.00;98870.44;2597636;28;20072;-83
2022/12/02 04:22:52;;;;;;;43.35;16.15;;;;;;;1.36;100.00;98864.78;2597693;28;20448;-82
2022/12/02 04:24:07;;;;;;;44.17;16.13;;;;;;;1.22;100.00;98863.69;2597628;28;20046;-86
2022/12/02 04:25:23;;;;;;;46.83;17.15;;;;;;;1.35;100.00;98862.16;2597326;28;20046;-84
2022/12/02 04:26:39;;;;;;;43.65;15.27;;;;;;;1.17;100.00;98868.75;2597689;28;20595;-82
2022/12/02 04:27:54;;;;;;;46.97;17.15;;;;;;;1.44;100.00;98862.31;2597871;28;20045;-82
2022/12/02 04:29:10;;;;;;;45.65;16.35;;;;;;;1.59;100.00;98865.97;2597262;28;20745;-86
2022/12/02 04:30:25;;;;;;;45.13;16.90;;;;;;;1.83;100.00;98866.34;2597831;28;20056;-82
2022/12/02 04:31:41;;;;;;;48.47;17.65;;;;;;;1.93;100.00;98861.28;2597264;28;20050;-82
2022/12/02 04:32:57;;;;;;;47.35;16.70;;;;;;;1.89;100.00;98867.25;2597638;28;20056;-83
2022/12/02 04:34:12;;;;;;;50.88;16.70;;;;;;;1.73;100.00;98867.03;2597323;28;20462;-81
2022/12/02 04:35:28;;;;;;;46.85;17.10;;;;;;;1.78;100.00;98872.28;2597354;28;20439;-82
2022/12/02 04:36:43;;;;;;;45.10;16.77;;;;;;;1.79;100.00;98874.00;2597382;28;20060;-82
2022/12/02 04:37:59;;;;;;;47.40;15.95;;;;;;;2.05;100.00;98876.09;2597494;28;20530;-85
2022/12/02 04:39:15;;;;;;;45.78;16.63;;;;;;;1.97;100.00;98871.69;2597586;28;20049;-82
2022/12/02 04:40:30;;;;;;;45.67;15.73;;;;;;;1.70;100.00;98877.34;2597220;28;20049;-83
2022/12/02 04:41:46;;;;;;;45.67;15.50;;;;;;;1.63;100.00;98872.91;2597721;28;20516;-92
2022/12/02 04:43:01;;;;;;;46.38;16.67;;;;;;;1.68;100.00;98876.44;2597345;28;20054;-82
2022/12/02 04:44:17;;;;;;;46.05;15.98;;;;;;;1.59;100.00;98878.88;2597532;28;20412;-81
2022/12/02 04:45:32;;;;;;;47.05;16.65;;;;;;;1.39;100.00;98879.41;2597602;28;20095;-82
2022/12/02 04:46:48;;;;;;;38.72;15.65;;;;;;;1.59;100.00;98878.88;2595990;28;20050;-81
2022/12/02 04:48:05;;;;;;;51.22;17.33;;;;;;;1.83;100.00;98868.91;2597563;28;20100;-81
2022/12/02 04:49:20;;;;;;;45.28;16.42;;;;;;;1.93;100.00;98876.78;2597639;28;20053;-81
2022/12/02 04:50:36;;;;;;;44.50;15.35;;;;;;;1.96;100.00;98874.25;2597366;28;20053;-81
2022/12/02 04:51:52;;;;;;;42.25;15.77;;;;;;;1.58;100.00;98866.81;2597324;28;20053;-83
2022/12/02 04:53:07;;;;;;;44.65;17.08;;;;;;;1.74;100.00;98873.94;2597149;28;20404;-83
2022/12/02 04:54:23;;;;;;;42.90;16.02;;;;;;;1.48;100.00;98869.25;2597411;28;20069;-82
2022/12/02 04:55:38;;;;;;;42.90;15.50;;;;;;;1.62;100.00;98868.59;2597429;28;20053;-81
2022/12/02 04:56:54;;;;;;;40.67;16.02;;;;;;;1.81;100.00;98867.16;2597332;28;20057;-83
2022/12/02 04:58:10;;;;;;;46.25;16.92;;;;;;;1.95;100.00;98864.75;2597569;28;20064;-81
2022/12/02 04:59:25;;;;;;;42.83;16.38;;;;;;;1.96;100.00;98866.50;2597112;28;20057;-82
2022/12/02 05:00:41;;;;;;;41.13;15.88;;;;;;;2.00;100.00;98857.94;2596817;28;20053;-82
2022/12/02 05:01:57;;;;;;;42.92;15.98;;;;;;;1.75;100.00;98865.34;2596780;28;20056;-81
2022/12/02 05:03:12;;;;;;;46.60;17.88;;;;;;;1.74;100.00;98873.06;2597150;28;20057;-85
2022/12/02 05:04:28;;;;;;;43.58;15.57;;;;;;;1.50;100.00;98859.81;2597604;28;20049;-81
2022/12/02 05:05:43;;;;;;;41.42;15.20;;;;;;;1.69;100.00;98865.28;2596942;28;20068;-81
2022/12/02 05:06:59;;;;;;;38.83;15.48;;;;;;;1.88;100.00;98860.38;2597399;28;20390;-80
2022/12/02 05:08:14;;;;;;;45.10;15.45;;;;;;;2.01;100.00;98859.69;2597184;28;20056;-81
2022/12/02 05:09:30;;;;;;;43.47;16.75;;;;;;;1.94;100.00;98856.16;2597180;28;20103;-80
2022/12/02 05:10:46;;;;;;;43.88;16.20;;;;;;;1.95;100.00;98863.03;2597074;28;20045;-83
2022/12/02 05:12:01;;;;;;;46.83;16.05;;;;;;;1.90;100.00;98858.66;2597234;28;20866;-80
2022/12/02 05:13:17;;;;;;;40.15;16.60;;;;;;;2.00;100.00;98854.47;2597212;28;20053;-81
2022/12/02 05:14:33;;;;;;;41.40;15.98;;;;;;;2.08;100.00;98848.56;2596913;28;20137;-81
2022/12/02 05:15:48;;;;;;;40.70;15.55;;;;;;;1.70;100.00;98854.09;2596777;28;20051;-81
2022/12/02 05:17:04;;;;;;;43.75;16.25;;;;;;;1.93;100.00;98857.00;2597150;28;20085;-83
2022/12/02 05:18:19;;;;;;;43.88;16.58;;;;;;;1.92;100.00;98859.53;2597504;28;20053;-81
2022/12/02 05:19:35;;;;;;;44.85;15.90;;;;;;;2.02;100.00;98851.09;2597400;28;20049;-79
2022/12/02 05:20:50;;;;;;;44.85;16.88;;;;;;;1.83;100.00;98849.97;2596975;28;20077;-80
2022/12/02 05:22:06;;;;;;;47.42;15.35;;;;;;;1.43;100.00;98849.38;2597408;28;20530;-83
2022/12/02 05:23:22;;;;;;;37.33;14.88;;;;;;;1.50;100.00;98851.22;2596459;28;20053;-82
2022/12/02 05:24:37;;;;;;;45.97;16.13;;;;;;;1.69;100.00;98849.78;2597241;28;20127;-85
2022/12/02 05:25:53;;;;;;;43.17;17.00;;;;;;;1.86;100.00;98851.72;2596809;28;20107;-85
2022/12/02 05:27:09;;;;;;;45.17;16.35;;;;;;;1.77;100.00;98853.31;2595856;28;20088;-83
2022/12/02 05:28:24;;;;;;;38.53;14.93;;;;;;;1.82;100.00;98850.81;2596536;28;20054;-91
2022/12/02 05:29:40;;;;;;;37.28;15.38;;;;;;;1.51;100.00;98853.81;2596930;28;20084;-83
2022/12/02 05:30:55;;;;;;;44.22;16.67;;;;;;;1.77;100.00;98858.50;2596516;28;20053;-85
2022/12/02 05:32:11;;;;;;;45.90;16.13;;;;;;;1.72;100.00;98864.44;2596935;28;20053;-81
2022/12/02 05:33:26;;;;;;;43.10;15.93;;;;;;;1.65;100.00;98866.06;2597112;28;20046;-83
2022/12/02 05:34:42;;;;;;;47.10;15.80;;;;;;;1.46;100.00;98862.31;2596782;28;20081;-81
2022/12/02 05:35:57;;;;;;;41.10;15.15;;;;;;;1.76;100.00;98858.50;2596855;28;20103;-83
2022/12/02 05:37:13;;;;;;;47.92;17.45;;;;;;;1.97;100.00;98868.25;2596745;28;20103;-82
2022/12/02 05:38:29;;;;;;;44.42;16.92;;;;;;;2.01;100.00;98866.53;2596387;28;20049;-82
2022/12/02 05:39:45;;;;;;;41.40;15.70;;;;;;;2.05;100.00;98864.03;2595989;28;20061;-81
2022/12/02 05:41:00;;;;;;;44.90;16.95;;;;;;;2.13;100.00;98865.88;2605691;28;20495;-81
2022/12/02 05:42:16;;;;;;;42.53;16.75;;;;;;;2.10;100.00;98866.69;2602107;28;20053;-83
2022/12/02 05:43:40;;;;;;;44.30;16.08;;;;;;;1.95;100.00;98872.50;2596622;28;20041;-82
2022/12/02 05:44:59;;;;;;;38.72;15.40;;;;;;;2.08;100.00;98863.22;2596870;28;20483;-81
2022/12/02 05:46:18;;;;;;;41.92;15.60;;;;;;;2.06;100.00;98870.06;2596090;28;20195;-81
2022/12/02 05:47:34;;;;;;;40.20;15.70;;;;;;;2.11;100.00;98873.56;2597061;28;20485;-84
2022/12/02 05:48:49;;;;;;;38.58;15.13;;;;;;;1.84;100.00;98874.94;2594796;28;20056;-81
2022/12/02 05:50:13;;;;;;;40.80;15.88;;;;;;;1.94;100.00;98873.34;2594441;28;20164;-81
2022/12/02 05:51:31;;;;;;;40.55;16.45;;;;;;;1.96;100.00;98871.69;2596127;28;20143;-80
2022/12/02 05:52:48;;;;;;;41.20;15.68;;;;;;;1.80;100.00;98884.34;2596115;28;20326;-82
2022/12/02 05:54:05;;;;;;;41.70;15.77;;;;;;;1.91;100.00;98876.78;2595912;28;20100;-82
2022/12/02 05:55:20;;;;;;;42.92;16.05;;;;;;;1.93;100.00;98871.59;2596706;28;20045;-82